Time;durP1;ratioP1;P1;durP2;ratioP2;P2;SDS_P1;SDS_P2;PMS_P1;PMS_P2;Temp;Humidity;BMP_temperature;BMP_pressure;BME280_temperature;BME280_humidity;BME280_pressure;Samples;Min_cycle;Max_cycle;Signal;HPM_P1;HPM_P2
2021/03/31 00:01:23;;;;;;;30.70;18.33;;;;;;;8.80;56.66;101236.38;5046873;28;20025;-23
2021/03/31 00:03:49;;;;;;;25.73;17.92;;;;;;;9.13;55.84;101231.59;5050286;28;20134;-22
2021/03/31 00:06:14;;;;;;;28.08;18.70;;;;;;;9.02;56.36;101235.53;5032332;28;20508;-20
2021/03/31 00:08:40;;;;;;;24.23;17.90;;;;;;;8.73;57.21;101230.97;5032643;28;20988;-22
2021/03/31 00:11:05;;;;;;;26.13;18.60;;;;;;;8.91;56.55;101232.47;5050228;28;20528;-23
2021/03/31 00:13:31;;;;;;;26.02;18.40;;;;;;;9.14;56.26;101229.78;5050102;28;20037;-22
2021/03/31 00:15:57;;;;;;;31.33;19.75;;;;;;;9.12;56.13;101221.97;5032361;28;20037;-22
2021/03/31 00:18:22;;;;;;;28.88;18.27;;;;;;;9.21;56.25;101228.88;5049883;28;20074;-20
2021/03/31 00:20:48;;;;;;;27.23;18.45;;;;;;;9.08;56.23;101234.00;5050036;28;20108;-21
2021/03/31 00:23:15;;;;;;;25.10;17.15;;;;;;;9.09;55.86;101230.31;5050315;28;20033;-23
2021/03/31 00:25:41;;;;;;;26.58;18.15;;;;;;;9.27;55.22;101226.50;5050086;28;20029;-23
2021/03/31 00:28:08;;;;;;;25.40;17.55;;;;;;;8.75;56.25;101220.97;5049385;28;20067;-22
2021/03/31 00:30:33;;;;;;;24.75;16.70;;;;;;;8.92;55.93;101223.50;5049947;28;20032;-23
2021/03/31 00:32:59;;;;;;;24.98;16.52;;;;;;;8.65;56.28;101207.09;5049646;28;20057;-22
2021/03/31 00:35:25;;;;;;;24.40;17.42;;;;;;;8.52;57.05;101230.75;5049704;28;20029;-22
2021/03/31 00:37:50;;;;;;;24.90;16.70;;;;;;;8.55;56.77;101230.44;5049736;28;20111;-22
2021/03/31 00:40:17;;;;;;;27.20;17.27;;;;;;;8.35;57.39;101230.00;5049278;28;20029;-22
2021/03/31 00:42:43;;;;;;;25.08;17.50;;;;;;;8.56;56.72;101224.94;5049600;28;20033;-23
2021/03/31 00:45:09;;;;;;;28.63;17.25;;;;;;;8.62;56.45;101208.28;5031586;28;20093;-22
2021/03/31 00:47:35;;;;;;;24.25;16.13;;;;;;;9.04;55.50;101216.72;5031789;28;20052;-22
2021/03/31 00:50:01;;;;;;;28.48;18.05;;;;;;;8.90;56.13;101209.53;5049426;28;20500;-23
2021/03/31 00:52:26;;;;;;;26.48;17.90;;;;;;;8.82;56.03;101195.28;5031308;28;20044;-23
2021/03/31 00:54:52;;;;;;;28.92;17.80;;;;;;;8.87;55.44;101201.91;5049552;28;20033;-23
2021/03/31 00:57:18;;;;;;;26.33;17.30;;;;;;;8.91;55.27;101195.22;5049223;28;20037;-23
2021/03/31 00:59:44;;;;;;;26.40;18.20;;;;;;;8.67;56.77;101215.72;5031641;28;20044;-23
2021/03/31 01:02:09;;;;;;;25.70;17.65;;;;;;;8.66;56.68;101214.03;5049045;28;20087;-23
2021/03/31 01:04:35;;;;;;;24.80;16.77;;;;;;;8.51;56.33;101215.81;5049562;28;20041;-22
2021/03/31 01:07:00;;;;;;;25.58;17.65;;;;;;;8.41;56.72;101200.94;5031536;28;20040;-21
2021/03/31 01:09:26;;;;;;;27.88;18.50;;;;;;;8.59;56.23;101207.78;5049346;28;20060;-23
2021/03/31 01:12:10;;;;;;;27.92;18.65;;;;;;;8.22;56.99;101215.47;4998135;28;20028;-23
2021/03/31 01:14:47;;;;;;;25.20;17.38;;;;;;;7.95;58.15;101213.31;5048549;28;20037;-23
2021/03/31 01:17:29;;;;;;;25.48;16.73;;;;;;;7.50;59.80;101198.84;5048980;28;20033;-22
2021/03/31 01:20:14;;;;;;;32.30;18.55;;;;;;;7.80;58.59;101210.53;5048885;28;20504;-21
2021/03/31 01:23:11;;;;;;;31.17;19.33;;;;;;;7.70;59.44;101207.25;5048812;28;20017;-22
2021/03/31 01:25:37;;;;;;;32.90;22.00;;;;;;;7.73;59.13;101206.94;5048892;28;20036;-23
2021/03/31 01:28:40;;;;;;;32.30;21.35;;;;;;;7.33;60.21;101200.72;5048964;28;20264;-22
2021/03/31 01:31:55;;;;;;;29.67;18.92;;;;;;;7.44;60.51;101205.69;5048804;28;20055;-22
2021/03/31 01:34:49;;;;;;;27.52;17.42;;;;;;;7.47;60.74;101208.00;4936749;28;20031;-22
2021/03/31 01:37:29;;;;;;;26.98;17.38;;;;;;;6.78;62.87;101200.50;5022865;28;20070;-22
2021/03/31 01:39:55;;;;;;;27.98;16.75;;;;;;;6.83;61.35;101179.59;5032196;28;20032;-21
2021/03/31 01:42:20;;;;;;;26.35;16.10;;;;;;;6.98;61.73;101197.47;5030714;28;20029;-23
2021/03/31 01:44:47;;;;;;;25.13;17.67;;;;;;;6.89;62.78;101195.84;5014545;28;20106;-22
2021/03/31 01:47:13;;;;;;;25.25;16.23;;;;;;;7.02;61.33;101177.59;5030477;28;20040;-23
2021/03/31 01:49:38;;;;;;;25.17;16.05;;;;;;;6.33;62.39;101172.59;5030156;28;20410;-22
2021/03/31 01:52:05;;;;;;;26.10;16.45;;;;;;;6.26;62.61;101182.22;5014009;28;20036;-22
2021/03/31 01:54:30;;;;;;;26.17;16.42;;;;;;;6.47;61.77;101181.72;5030009;28;20087;-22
2021/03/31 01:56:56;;;;;;;26.27;16.42;;;;;;;6.69;61.60;101192.69;5048167;28;20480;-23
2021/03/31 01:59:22;;;;;;;26.20;16.67;;;;;;;6.15;62.99;101170.13;5030360;28;20094;-22
2021/03/31 02:01:52;;;;;;;25.08;16.08;;;;;;;6.26;62.49;101184.88;5029965;28;20036;-22
2021/03/31 02:04:18;;;;;;;25.33;17.15;;;;;;;5.79;63.24;101158.91;5030104;28;20447;-22
2021/03/31 02:06:44;;;;;;;25.92;16.98;;;;;;;5.95;63.18;101166.91;4997430;28;20025;-22
2021/03/31 02:09:10;;;;;;;27.33;17.20;;;;;;;6.10;62.96;101172.41;5013478;28;20025;-22
2021/03/31 02:11:35;;;;;;;27.67;18.77;;;;;;;6.02;63.17;101190.94;5030553;28;20074;-23
2021/03/31 02:14:01;;;;;;;28.17;17.05;;;;;;;5.94;62.96;101174.97;5029813;28;20033;-22
2021/03/31 02:16:27;;;;;;;27.38;15.95;;;;;;;6.14;61.64;101157.84;5029676;28;20059;-21
2021/03/31 02:18:53;;;;;;;26.00;17.13;;;;;;;6.24;62.24;101198.25;5030296;28;20032;-21
2021/03/31 02:21:19;;;;;;;27.10;17.85;;;;;;;6.55;61.54;101194.16;5013572;28;20060;-22
2021/03/31 02:23:44;;;;;;;28.63;18.08;;;;;;;5.43;62.49;101201.41;5013381;28;20048;-22
2021/03/31 02:26:10;;;;;;;28.30;18.13;;;;;;;4.54;66.37;101205.91;5028835;28;20039;-22
2021/03/31 02:28:35;;;;;;;30.85;18.75;;;;;;;3.81;69.99;101214.69;5047388;28;20025;-22
2021/03/31 02:31:04;;;;;;;31.95;21.15;;;;;;;4.19;70.39;101201.44;5047483;28;20475;-20
2021/03/31 02:33:30;;;;;;;32.00;18.65;;;;;;;4.96;67.29;101205.22;5047388;28;20520;-23
2021/03/31 02:35:55;;;;;;;29.90;18.38;;;;;;;5.42;64.83;101205.06;5013117;28;20051;-21
2021/03/31 02:38:21;;;;;;;28.20;18.40;;;;;;;5.45;64.37;101207.38;5047372;28;20041;-22
2021/03/31 02:40:47;;;;;;;28.27;18.15;;;;;;;5.75;63.84;101191.97;5013484;28;20040;-22
2021/03/31 02:43:13;;;;;;;28.77;18.83;;;;;;;5.13;66.80;101211.50;5029455;28;20048;-23
2021/03/31 02:45:39;;;;;;;33.75;20.40;;;;;;;4.91;67.75;101198.78;5047238;28;20037;-23
2021/03/31 02:48:05;;;;;;;32.80;20.42;;;;;;;4.98;67.38;101202.44;5013259;28;20036;-23
2021/03/31 02:50:31;;;;;;;31.65;20.25;;;;;;;5.36;64.77;101192.44;5012777;28;20035;-22
2021/03/31 02:52:56;;;;;;;34.70;21.27;;;;;;;5.78;62.76;101191.63;5013047;28;20025;-23
2021/03/31 02:55:23;;;;;;;33.28;21.80;;;;;;;5.75;63.11;101198.09;5029620;28;20106;-22
2021/03/31 02:57:48;;;;;;;32.22;21.15;;;;;;;4.81;66.53;101207.59;5029463;28;20033;-23
2021/03/31 03:00:14;;;;;;;38.95;22.02;;;;;;;4.23;68.06;101210.72;5046738;28;20075;-22
2021/03/31 03:02:41;;;;;;;31.13;20.13;;;;;;;3.60;68.94;101196.47;5047195;28;20068;-23
2021/03/31 03:05:07;;;;;;;30.27;19.40;;;;;;;3.65;69.48;101240.03;5029524;28;20108;-23
2021/03/31 03:07:34;;;;;;;35.30;20.98;;;;;;;3.68;70.05;101237.09;5029574;28;20035;-22
2021/03/31 03:09:59;;;;;;;36.28;22.35;;;;;;;4.56;67.90;101237.47;5029548;28;20040;-21
2021/03/31 03:12:25;;;;;;;40.92;25.35;;;;;;;5.15;64.69;101220.09;5012925;28;20033;-22
2021/03/31 03:14:51;;;;;;;41.42;28.13;;;;;;;5.29;64.59;101239.88;5029094;28;20428;-22
2021/03/31 03:17:16;;;;;;;39.22;26.70;;;;;;;4.77;66.01;101221.28;5012773;28;20041;-22
2021/03/31 03:19:42;;;;;;;35.05;23.08;;;;;;;4.94;66.06;101238.09;5029110;28;20032;-22
2021/03/31 03:22:08;;;;;;;33.58;20.55;;;;;;;5.19;65.07;101236.47;5046691;28;20135;-22
2021/03/31 03:24:36;;;;;;;34.72;20.70;;;;;;;5.58;63.91;101236.88;5029248;28;20033;-22
2021/03/31 03:27:02;;;;;;;31.75;19.05;;;;;;;5.82;62.38;101235.31;5029049;28;20120;-23
2021/03/31 03:29:28;;;;;;;29.95;19.30;;;;;;;6.01;61.57;101237.78;5029055;28;20021;-22
2021/03/31 03:31:54;;;;;;;35.83;22.73;;;;;;;5.62;62.36;101209.13;5029491;28;20048;-23
2021/03/31 03:34:19;;;;;;;33.17;22.88;;;;;;;6.08;60.95;101224.72;5028734;28;20041;-22
2021/03/31 03:36:45;;;;;;;35.47;21.33;;;;;;;5.91;61.91;101234.38;5029887;28;20095;-23
2021/03/31 03:39:10;;;;;;;30.98;19.98;;;;;;;5.86;61.16;101231.38;5032906;28;20033;-22
2021/03/31 03:41:36;;;;;;;31.08;20.23;;;;;;;5.91;60.78;101236.22;5016544;28;20043;-22
2021/03/31 03:44:02;;;;;;;31.80;20.15;;;;;;;6.08;59.87;101232.66;5050574;28;20029;-23
2021/03/31 03:46:32;;;;;;;34.70;20.13;;;;;;;5.69;60.77;101235.78;5050082;28;20108;-22
2021/03/31 03:48:59;;;;;;;31.52;21.58;;;;;;;5.19;62.29;101234.66;5048674;28;20167;-23
2021/03/31 03:51:25;;;;;;;37.15;24.80;;;;;;;5.05;63.58;101229.94;5050478;28;20024;-23
2021/03/31 03:53:53;;;;;;;39.58;21.65;;;;;;;5.16;62.61;101227.03;5050662;28;20433;-23
2021/03/31 03:56:19;;;;;;;35.20;22.25;;;;;;;4.89;63.10;101235.09;5016367;28;20051;-23
2021/03/31 03:58:45;;;;;;;37.35;23.23;;;;;;;4.89;63.30;101235.09;5016298;28;20025;-23
2021/03/31 04:01:10;;;;;;;39.25;25.77;;;;;;;4.21;65.19;101252.28;5050365;28;20491;-23
2021/03/31 04:03:36;;;;;;;39.67;23.35;;;;;;;3.74;67.01;101221.53;5050219;28;20099;-23
2021/03/31 04:06:01;;;;;;;39.38;23.30;;;;;;;3.60;68.69;101232.56;5050271;28;20032;-23
2021/03/31 04:08:27;;;;;;;37.55;25.17;;;;;;;3.89;66.33;101237.72;5049931;28;20108;-22
2021/03/31 04:10:53;;;;;;;38.47;26.73;;;;;;;3.35;68.53;101223.47;5050378;28;20029;-22
2021/03/31 04:13:22;;;;;;;38.20;24.40;;;;;;;2.98;70.35;101232.16;5032415;28;20136;-23
2021/03/31 04:15:47;;;;;;;;;;;;;;;2.89;70.09;101238.28;5050637;28;20086;-21
2021/03/31 04:18:13;;;;;;;38.38;22.65;;;;;;;3.92;64.96;101249.78;5032138;28;19912;-23
2021/03/31 04:20:39;;;;;;;45.08;27.42;;;;;;;4.43;63.74;101259.78;5032416;28;20083;-23
2021/03/31 04:23:05;;;;;;;55.90;32.80;;;;;;;4.47;63.67;101248.91;5015836;28;20550;-23
2021/03/31 04:25:31;;;;;;;68.47;41.92;;;;;;;4.25;65.80;101269.50;5015628;28;20495;-23
2021/03/31 04:27:57;;;;;;;57.08;34.08;;;;;;;3.92;66.64;101247.13;5032174;28;20033;-23
2021/03/31 04:30:23;;;;;;;43.90;28.42;;;;;;;4.02;66.35;101259.34;5031804;28;20101;-22
2021/03/31 04:32:49;;;;;;;52.45;25.98;;;;;;;4.56;65.06;101255.94;5031952;28;20029;-22
2021/03/31 04:35:19;;;;;;;45.83;25.80;;;;;;;4.76;63.99;101256.59;5032115;28;20060;-23
2021/03/31 04:37:44;;;;;;;46.55;24.50;;;;;;;4.25;65.60;101245.72;5049691;28;20476;-23
2021/03/31 04:40:14;;;;;;;41.22;22.58;;;;;;;4.97;63.73;101256.31;5031453;28;20061;-21
2021/03/31 04:42:39;;;;;;;42.03;24.83;;;;;;;5.02;63.78;101256.66;5049657;28;20467;-23
2021/03/31 04:45:06;;;;;;;52.78;28.20;;;;;;;5.17;62.59;101228.72;5049422;28;20094;-23
2021/03/31 04:47:33;;;;;;;43.92;27.65;;;;;;;5.54;62.15;101240.84;5031569;28;20036;-22
2021/03/31 04:49:58;;;;;;;46.67;26.60;;;;;;;5.06;62.76;101236.06;5014076;28;20076;-21
2021/03/31 04:52:24;;;;;;;56.08;31.33;;;;;;;5.40;62.85;101252.00;5049374;28;20033;-23
2021/03/31 04:54:49;;;;;;;59.58;36.25;;;;;;;5.43;63.14;101263.09;5049210;28;20037;-22
2021/03/31 04:57:15;;;;;;;73.10;41.70;;;;;;;5.67;62.67;101255.47;5049506;28;20040;-23
2021/03/31 04:59:40;;;;;;;65.15;37.03;;;;;;;4.85;65.20;101260.19;5049334;28;20037;-21
2021/03/31 05:02:06;;;;;;;47.78;33.63;;;;;;;4.27;66.57;101277.25;5049169;28;20037;-19
2021/03/31 05:04:31;;;;;;;59.72;33.90;;;;;;;3.90;67.02;101243.81;5049283;28;20048;-22
2021/03/31 05:06:57;;;;;;;67.28;40.88;;;;;;;4.34;66.36;101247.47;5049083;28;20068;-22
2021/03/31 05:09:22;;;;;;;70.75;39.20;;;;;;;4.96;65.11;101252.00;5048903;28;20029;-23
2021/03/31 05:11:48;;;;;;;58.08;36.08;;;;;;;5.37;64.21;101255.78;5048989;28;20029;-23
2021/03/31 05:14:13;;;;;;;62.50;36.55;;;;;;;5.87;63.16;101267.47;5049048;28;20025;-22
2021/03/31 05:16:39;;;;;;;58.42;35.53;;;;;;;5.55;63.99;101261.00;5048941;28;20114;-22
2021/03/31 05:19:05;;;;;;;62.30;36.10;;;;;;;5.80;63.05;101261.97;5048969;28;20025;-22
2021/03/31 05:21:30;;;;;;;60.17;36.03;;;;;;;6.02;62.17;101260.59;5048903;28;20090;-22
2021/03/31 05:23:55;;;;;;;58.25;34.83;;;;;;;6.31;61.76;101272.63;5048797;28;20467;-22
2021/03/31 05:26:21;;;;;;;59.95;36.03;;;;;;;6.10;62.78;101277.53;5048796;28;20051;-22
2021/03/31 05:28:46;;;;;;;61.13;35.58;;;;;;;5.49;65.24;101266.09;5048912;28;20140;-23
2021/03/31 05:31:12;;;;;;;45.60;29.73;;;;;;;5.51;66.03;101288.75;5049106;28;20065;-23
2021/03/31 05:33:37;;;;;;;56.20;30.17;;;;;;;5.39;66.53;101287.34;5048791;28;20039;-22
2021/03/31 05:36:03;;;;;;;39.58;25.48;;;;;;;5.93;64.98;101288.00;5048652;28;20040;-23
2021/03/31 05:38:29;;;;;;;38.63;25.70;;;;;;;5.95;64.63;101287.91;5030298;28;20036;-23
2021/03/31 05:40:58;;;;;;;41.22;26.88;;;;;;;5.88;65.05;101290.28;5048397;28;20566;-23
2021/03/31 05:43:24;;;;;;;37.78;25.55;;;;;;;6.19;65.57;101293.28;5048351;28;20033;-23
2021/03/31 05:45:49;;;;;;;40.10;25.23;;;;;;;6.40;63.74;101274.31;5048124;28;20504;-23
2021/03/31 05:48:15;;;;;;;43.53;26.95;;;;;;;6.57;63.25;101295.56;5010300;28;20176;-23
2021/03/31 05:50:40;;;;;;;37.72;24.73;;;;;;;6.62;64.08;101294.09;5027074;28;20029;-23
2021/03/31 05:53:06;;;;;;;38.80;24.70;;;;;;;6.89;62.49;101294.78;5028290;28;20044;-22
2021/03/31 05:55:32;;;;;;;38.53;25.67;;;;;;;7.46;61.09;101280.66;5027307;28;20037;-23
2021/03/31 05:57:58;;;;;;;35.00;23.38;;;;;;;7.90;59.54;101292.66;5028441;28;20037;-23
2021/03/31 06:00:24;;;;;;;27.00;18.58;;;;;;;8.31;55.23;101274.72;5026474;28;20033;-24
2021/03/31 06:02:49;;;;;;;32.92;23.08;;;;;;;8.64;55.59;101290.50;5026936;28;20028;-23
2021/03/31 06:05:15;;;;;;;34.70;23.58;;;;;;;8.56;55.60;101274.59;5028078;28;20049;-23
2021/03/31 06:07:45;;;;;;;29.15;19.80;;;;;;;9.27;53.29;101285.06;5027944;28;20555;-24
2021/03/31 06:10:23;;;;;;;35.30;23.23;;;;;;;9.28;54.81;101281.41;5027914;28;20112;-23
2021/03/31 06:12:52;;;;;;;38.58;23.58;;;;;;;9.79;53.53;101289.53;5026853;28;20026;-23
2021/03/31 06:15:34;;;;;;;27.15;20.48;;;;;;;9.92;52.25;101284.38;5028021;28;20037;-24
2021/03/31 06:18:08;;;;;;;30.58;21.02;;;;;;;9.50;52.68;101291.16;5028057;28;20486;-23
2021/03/31 06:20:41;;;;;;;37.70;22.02;;;;;;;9.03;54.32;101281.59;5027850;28;20033;-24
2021/03/31 06:23:24;;;;;;;27.27;19.05;;;;;;;9.08;51.44;101281.88;5027912;28;20116;-23
2021/03/31 06:26:01;;;;;;;25.35;17.52;;;;;;;9.17;47.75;101279.97;5028082;28;20095;-24
2021/03/31 06:28:28;;;;;;;26.67;18.10;;;;;;;9.36;48.09;101273.34;5027449;28;20072;-21
2021/03/31 06:31:14;;;;;;;30.33;19.60;;;;;;;9.67;48.80;101277.69;5027539;28;20033;-22
2021/03/31 06:33:40;;;;;;;24.00;17.67;;;;;;;9.61;48.07;101269.41;5027705;28;20033;-24
2021/03/31 06:36:07;;;;;;;29.08;18.63;;;;;;;9.52;49.11;101267.00;5027588;28;20025;-23
2021/03/31 06:38:33;;;;;;;26.20;17.27;;;;;;;9.35;49.38;101272.50;5027613;28;20029;-23
2021/03/31 06:41:36;;;;;;;26.35;18.10;;;;;;;9.80;48.09;101277.84;5027365;28;20037;-23
2021/03/31 06:44:24;;;;;;;24.02;17.98;;;;;;;9.46;49.12;101265.91;4995673;28;20551;-23
2021/03/31 06:49:51;;;;;;;19.67;11.77;;;;;;;10.00;45.04;101276.28;4965888;28;20047;-24
2021/03/31 06:52:17;;;;;;;14.52;11.35;;;;;;;10.16;44.96;101274.44;5014349;28;20087;-23
2021/03/31 06:54:49;;;;;;;13.80;10.25;;;;;;;10.52;43.73;101268.31;5027288;28;20030;-24
2021/03/31 06:57:23;;;;;;;16.67;11.00;;;;;;;10.16;44.75;101248.59;5027243;28;20108;-24
2021/03/31 07:00:06;;;;;;;13.90;10.10;;;;;;;10.54;43.15;101250.28;5025965;28;20069;-22
2021/03/31 07:02:32;;;;;;;17.83;11.07;;;;;;;11.38;41.81;101263.75;5027436;28;20029;-23
2021/03/31 07:04:58;;;;;;;13.38;9.35;;;;;;;11.31;40.12;101248.69;5025971;28;20055;-23
2021/03/31 07:07:34;;;;;;;14.38;9.75;;;;;;;11.26;38.79;101255.44;5027095;28;20477;-23
2021/03/31 07:10:07;;;;;;;14.00;9.75;;;;;;;11.69;39.52;101256.31;5026975;28;20021;-24
2021/03/31 07:12:49;;;;;;;13.98;9.32;;;;;;;11.26;40.33;101239.41;5026607;28;20492;-22
2021/03/31 07:15:16;;;;;;;15.52;9.38;;;;;;;11.09;40.51;101242.56;5026200;28;20104;-23
2021/03/31 07:17:48;;;;;;;13.57;8.57;;;;;;;11.00;40.51;101256.03;5025898;28;20025;-24
2021/03/31 07:20:14;;;;;;;18.30;11.90;;;;;;;11.21;41.10;101254.38;5026947;28;20252;-23
2021/03/31 07:22:40;;;;;;;9.48;6.20;;;;;;;11.54;35.61;101235.88;5027096;28;20030;-23
2021/03/31 07:25:06;;;;;;;8.98;6.63;;;;;;;11.85;34.94;101258.69;5026961;28;20036;-22
2021/03/31 07:27:33;;;;;;;9.18;5.70;;;;;;;11.88;34.83;101252.94;5026831;28;20472;-23
2021/03/31 07:30:11;;;;;;;9.15;6.43;;;;;;;11.92;33.39;101246.19;5026791;28;20500;-23
2021/03/31 07:32:42;;;;;;;10.30;5.88;;;;;;;11.99;34.62;101255.09;5011141;28;20437;-22
2021/03/31 07:35:08;;;;;;;9.30;6.20;;;;;;;11.84;33.81;101235.66;5009953;28;20034;-23
2021/03/31 07:37:34;;;;;;;8.82;5.25;;;;;;;11.81;33.66;101257.41;5025705;28;20040;-23
2021/03/31 07:40:00;;;;;;;8.27;5.22;;;;;;;11.79;33.38;101233.56;5025739;28;20079;-23
2021/03/31 07:42:27;;;;;;;7.75;5.25;;;;;;;11.50;33.73;101239.97;5026586;28;20033;-23
2021/03/31 07:44:53;;;;;;;5.75;4.50;;;;;;;11.79;31.37;101238.06;5026812;28;20034;-23
2021/03/31 07:47:18;;;;;;;9.82;5.05;;;;;;;11.80;32.93;101245.91;5025346;28;20030;-23
2021/03/31 07:49:44;;;;;;;7.45;5.38;;;;;;;11.98;32.51;101248.06;5008871;28;20107;-23
2021/03/31 07:52:09;;;;;;;10.70;5.43;;;;;;;12.21;33.67;101246.94;5025320;28;20029;-23
2021/03/31 07:54:35;;;;;;;8.40;5.60;;;;;;;12.42;31.42;101241.44;5026851;28;20413;-23
2021/03/31 07:57:28;;;;;;;8.48;4.75;;;;;;;12.47;31.43;101248.88;5026520;28;20375;-22
2021/03/31 07:59:54;;;;;;;8.00;5.13;;;;;;;12.83;31.99;101248.50;5026573;28;20033;-23
2021/03/31 08:02:23;;;;;;;8.27;5.53;;;;;;;13.02;30.67;101232.66;5025212;28;20032;-23
2021/03/31 08:04:48;;;;;;;7.07;4.85;;;;;;;12.94;33.89;101240.91;5009051;28;20026;-23
2021/03/31 08:07:21;;;;;;;7.18;5.05;;;;;;;12.66;31.08;101217.81;5025316;28;20030;-23
2021/03/31 08:09:47;;;;;;;6.65;4.65;;;;;;;12.97;30.50;101232.44;5025418;28;20136;-23
2021/03/31 08:12:14;;;;;;;6.93;4.70;;;;;;;13.20;29.84;101230.19;5026198;28;20116;-23
2021/03/31 08:14:41;;;;;;;8.32;5.10;;;;;;;13.63;29.84;101235.06;5008945;28;20112;-22
2021/03/31 08:17:12;;;;;;;7.82;4.70;;;;;;;13.57;30.85;101211.78;5026647;28;20120;-23
2021/03/31 08:19:41;;;;;;;7.63;4.88;;;;;;;13.61;29.83;101231.78;5026411;28;20128;-21
2021/03/31 08:22:34;;;;;;;8.15;5.22;;;;;;;13.82;29.10;101216.47;5026342;28;20128;-21
2021/03/31 08:25:23;;;;;;;8.15;4.80;;;;;;;14.13;29.82;101228.28;5028949;28;20026;-22
2021/03/31 08:28:04;;;;;;;6.65;3.78;;;;;;;14.22;27.75;101194.78;5028988;28;20068;-22
2021/03/31 08:30:30;;;;;;;6.55;4.65;;;;;;;13.82;28.08;101209.22;5028209;28;20030;-24
2021/03/31 08:32:56;;;;;;;6.57;4.65;;;;;;;13.60;28.34;101189.91;5029947;28;20040;-22
2021/03/31 08:35:25;;;;;;;8.25;4.35;;;;;;;14.03;27.90;101197.38;5029943;28;20067;-22
2021/03/31 08:37:51;;;;;;;6.43;4.10;;;;;;;14.24;28.67;101192.72;5028555;28;20107;-22
2021/03/31 08:40:16;;;;;;;6.28;4.30;;;;;;;14.29;28.52;101203.63;5029440;28;20531;-22
2021/03/31 08:42:53;;;;;;;6.57;4.28;;;;;;;14.66;28.53;101187.72;5029763;28;20029;-22
2021/03/31 08:45:30;;;;;;;6.20;4.35;;;;;;;14.54;27.84;101197.50;5029614;28;20532;-22
2021/03/31 08:47:58;;;;;;;6.77;4.50;;;;;;;14.91;28.00;101197.66;5029197;28;20092;-22
2021/03/31 08:50:25;;;;;;;6.63;4.43;;;;;;;14.07;28.74;101193.22;5049595;28;20136;-22
2021/03/31 08:52:57;;;;;;;5.88;3.65;;;;;;;14.51;26.29;101179.97;5049698;28;20025;-23
2021/03/31 08:55:22;;;;;;;6.60;3.65;;;;;;;14.57;26.86;101181.00;5049222;28;20651;-22
2021/03/31 08:57:48;;;;;;;14.48;5.25;;;;;;;14.97;26.66;101181.47;5014978;28;20112;-22
2021/03/31 09:00:14;;;;;;;6.95;4.13;;;;;;;15.01;27.26;101149.63;5049066;28;20079;-22
2021/03/31 09:02:42;;;;;;;9.55;4.30;;;;;;;15.13;27.30;101173.91;5049203;28;20111;-21
2021/03/31 09:05:09;;;;;;;7.93;3.53;;;;;;;14.60;27.38;101169.81;5049210;28;20564;-22
2021/03/31 09:07:35;;;;;;;6.30;3.80;;;;;;;14.31;26.94;101139.03;5049081;28;20413;-22
2021/03/31 09:10:01;;;;;;;7.63;4.40;;;;;;;14.51;28.98;101163.06;5048904;28;20064;-21
2021/03/31 09:12:29;;;;;;;6.38;3.85;;;;;;;14.59;26.53;101138.66;5049082;28;20041;-21
2021/03/31 09:14:59;;;;;;;8.05;4.22;;;;;;;15.18;27.76;101156.06;5049167;28;20544;-21
2021/03/31 09:17:26;;;;;;;6.25;3.20;;;;;;;15.73;25.77;101154.44;5049090;28;20037;-22
2021/03/31 09:19:53;;;;;;;5.28;3.65;;;;;;;15.45;25.05;101128.91;5048877;28;20043;-23
2021/03/31 09:22:19;;;;;;;8.75;4.97;;;;;;;15.67;27.00;101148.91;5048588;28;20031;-22
2021/03/31 09:24:47;;;;;;;5.70;3.45;;;;;;;15.67;26.24;101139.97;5048672;28;20029;-22
2021/03/31 09:27:14;;;;;;;6.38;3.60;;;;;;;14.99;26.30;101117.59;5048749;28;20736;-23
2021/03/31 09:29:44;;;;;;;5.32;3.65;;;;;;;14.81;27.55;101122.94;5048638;28;20032;-22
2021/03/31 09:32:25;;;;;;;7.10;3.83;;;;;;;14.88;26.88;101118.34;5031587;28;20029;-22
2021/03/31 09:34:50;;;;;;;5.47;3.55;;;;;;;15.32;28.09;101137.91;5048390;28;20029;-22
2021/03/31 09:37:18;;;;;;;6.25;3.85;;;;;;;15.18;27.23;101131.91;5048608;28;20029;-22
2021/03/31 09:39:47;;;;;;;6.60;3.50;;;;;;;15.58;26.15;101122.53;5048853;28;20147;-23
2021/03/31 09:42:29;;;;;;;6.10;3.33;;;;;;;15.36;26.92;101119.50;5048281;28;20045;-21
2021/03/31 09:44:55;;;;;;;6.10;3.28;;;;;;;15.71;26.06;101121.53;5048442;28;20582;-22
2021/03/31 09:47:22;;;;;;;5.85;3.58;;;;;;;15.58;25.83;101104.53;5048305;28;20053;-22
2021/03/31 09:49:51;;;;;;;7.25;3.85;;;;;;;16.38;26.11;101106.09;5048191;28;20061;-22
2021/03/31 09:52:17;;;;;;;5.53;3.50;;;;;;;16.07;26.06;101104.50;5048014;28;20033;-22
2021/03/31 09:54:46;;;;;;;6.95;4.60;;;;;;;16.08;27.30;101111.56;5030249;28;20563;-23
2021/03/31 09:57:15;;;;;;;7.53;4.10;;;;;;;15.72;27.45;101085.53;5048209;28;20033;-22
2021/03/31 09:59:41;;;;;;;9.23;3.80;;;;;;;16.10;27.15;101089.78;5048218;28;20096;-22
2021/03/31 10:02:10;;;;;;;5.45;3.58;;;;;;;16.35;26.30;101068.88;5030065;28;20035;-20
2021/03/31 10:04:40;;;;;;;6.00;3.90;;;;;;;16.66;28.51;101080.38;5048158;28;20028;-22
2021/03/31 10:07:14;;;;;;;9.52;4.68;;;;;;;16.26;26.55;101081.03;5047871;28;20488;-22
2021/03/31 10:09:43;;;;;;;10.93;5.78;;;;;;;16.42;26.91;101080.34;5030474;28;20037;-23
2021/03/31 10:12:10;;;;;;;9.27;5.65;;;;;;;16.36;28.43;101075.88;5056321;28;20028;-22
2021/03/31 10:14:42;;;;;;;8.50;4.88;;;;;;;16.93;25.59;101064.56;5037726;28;20032;-23
2021/03/31 10:17:09;;;;;;;6.35;4.30;;;;;;;17.34;26.71;101072.69;5056653;28;20408;-22
2021/03/31 10:19:34;;;;;;;7.43;3.50;;;;;;;17.51;24.35;101073.56;5067646;28;20464;-23
2021/03/31 10:22:06;;;;;;;5.85;3.50;;;;;;;17.80;25.16;101055.50;5049925;28;20040;-22
2021/03/31 10:24:40;;;;;;;6.05;3.78;;;;;;;17.24;24.71;101035.53;5050206;28;20067;-22
2021/03/31 10:27:06;;;;;;;8.70;4.57;;;;;;;16.83;25.88;101032.81;5067564;28;20020;-21
2021/03/31 10:29:31;;;;;;;8.05;3.50;;;;;;;17.61;25.96;101030.59;5049692;28;20025;-22
2021/03/31 10:31:58;;;;;;;7.10;3.45;;;;;;;17.72;26.34;101046.97;5067544;28;20035;-22
2021/03/31 10:34:24;;;;;;;7.05;3.70;;;;;;;17.55;24.74;101028.03;5049460;28;20036;-23
2021/03/31 10:56:24;;;;;;;7.50;4.13;;;;;;;18.15;25.92;101010.47;5047401;28;20028;-22
2021/03/31 10:58:49;;;;;;;9.77;5.22;;;;;;;17.56;25.39;101002.72;5047270;28;20048;-22
2021/03/31 11:01:15;;;;;;;6.78;4.22;;;;;;;17.68;25.86;100973.81;5047049;28;20033;-22
2021/03/31 11:03:41;;;;;;;7.80;5.00;;;;;;;17.70;25.29;100976.25;5047091;28;20032;-22
2021/03/31 11:06:06;;;;;;;5.97;3.90;;;;;;;18.05;24.48;100984.94;5046849;28;20036;-21
2021/03/31 11:08:32;;;;;;;7.75;4.00;;;;;;;17.71;25.80;100985.97;5046946;28;20061;-22
2021/03/31 11:10:57;;;;;;;6.88;4.45;;;;;;;18.05;25.06;100995.75;5047005;28;20029;-23
2021/03/31 11:13:23;;;;;;;6.88;4.22;;;;;;;18.52;24.77;100982.94;5047049;28;20029;-22
2021/03/31 11:15:50;;;;;;;5.97;3.63;;;;;;;18.10;25.64;100980.69;5046943;28;20132;-21
2021/03/31 11:26:29;;;;;;;7.88;5.03;;;;;;;18.64;24.98;100972.84;4965988;28;20852;-22
2021/03/31 11:28:55;;;;;;;6.95;4.00;;;;;;;18.44;24.95;100959.88;5013130;28;20056;-22
2021/03/31 11:31:20;;;;;;;5.65;3.70;;;;;;;19.24;25.49;100963.81;5046711;28;20036;-22
2021/03/31 11:33:46;;;;;;;9.88;4.18;;;;;;;19.25;24.50;100954.66;5046790;28;20040;-22
2021/03/31 11:36:12;;;;;;;5.97;3.45;;;;;;;19.31;23.51;100936.59;5046622;28;20029;-22
2021/03/31 11:38:38;;;;;;;5.85;3.40;;;;;;;18.47;24.59;100952.09;5046687;28;20036;-21
2021/03/31 11:41:04;;;;;;;6.82;3.92;;;;;;;18.41;24.19;100939.59;5046677;28;20029;-22
2021/03/31 11:43:30;;;;;;;10.57;5.60;;;;;;;18.60;24.59;100948.19;5046797;28;20025;-22
2021/03/31 11:45:55;;;;;;;5.20;3.95;;;;;;;18.29;24.32;100933.47;5046920;28;20483;-22
2021/03/31 11:48:21;;;;;;;7.82;3.85;;;;;;;18.89;23.87;100936.41;5028251;28;20439;-23
2021/03/31 11:50:46;;;;;;;6.28;3.88;;;;;;;19.75;23.71;100935.66;5046839;28;20519;-22
2021/03/31 11:53:13;;;;;;;7.68;4.32;;;;;;;19.19;24.37;100934.03;5046737;28;20068;-22
2021/03/31 11:55:38;;;;;;;6.00;3.60;;;;;;;19.72;22.77;100922.66;5046461;28;20479;-22